Time;durP1;ratioP1;P1;durP2;ratioP2;P2;SDS_P1;SDS_P2;PMS_P1;PMS_P2;Temp;Humidity;BMP_temperature;BMP_pressure;BME280_temperature;BME280_humidity;BME280_pressure;Samples;Min_cycle;Max_cycle;Signal;HPM_P1;HPM_P2
2022/08/28 00:11:01;;;;;;;15.13;4.82;;;;;;;;;;4978685;28;20231;-65
2022/08/28 00:13:26;;;;;;;12.77;4.47;;;;;;;;;;4965753;28;20291;-65
2022/08/28 00:15:53;;;;;;;12.68;4.50;;;;;;;;;;4968003;28;20681;-64
2022/08/28 00:18:19;;;;;;;10.88;3.90;;;;;;;;;;4974920;28;20279;-64
2022/08/28 00:20:45;;;;;;;9.32;3.75;;;;;;;;;;4980553;28;20185;-64
2022/08/28 00:23:10;;;;;;;10.48;4.00;;;;;;;;;;4974723;28;21404;-64
2022/08/28 00:25:36;;;;;;;11.30;4.07;;;;;;;;;;4974283;28;20197;-64
2022/08/28 00:28:02;;;;;;;14.48;5.65;;;;;;;;;;4977705;28;20299;-64
2022/08/28 00:30:29;;;;;;;11.27;3.50;;;;;;;;;;4978513;28;20177;-65
2022/08/28 00:32:56;;;;;;;10.13;4.25;;;;;;;;;;4974307;28;20443;-65
2022/08/28 00:35:22;;;;;;;12.18;4.07;;;;;;;;;;4970592;28;20403;-64
2022/08/28 00:37:47;;;;;;;12.75;3.67;;;;;;;;;;4973823;28;20193;-65
2022/08/28 00:40:14;;;;;;;10.80;3.78;;;;;;;;;;4972883;28;20734;-64
2022/08/28 00:42:39;;;;;;;11.57;3.65;;;;;;;;;;4981045;28;20176;-64
2022/08/28 00:45:05;;;;;;;11.40;3.75;;;;;;;;;;4976453;28;20189;-64
2022/08/28 00:47:30;;;;;;;11.52;3.80;;;;;;;;;;4984375;28;20188;-64
2022/08/28 00:49:55;;;;;;;15.52;4.90;;;;;;;;;;4985592;28;20271;-64
2022/08/28 00:52:22;;;;;;;9.55;3.63;;;;;;;;;;4995894;28;20185;-65
2022/08/28 01:01:18;;;;;;;14.00;4.18;;;;;;;;;;4998665;28;20196;-64
2022/08/28 01:03:43;;;;;;;15.63;4.47;;;;;;;;;;4997518;28;20184;-65
2022/08/28 01:06:09;;;;;;;13.00;4.32;;;;;;;;;;4995294;28;20541;-64
2022/08/28 01:08:35;;;;;;;10.38;3.78;;;;;;;;;;4997704;28;20699;-65
2022/08/28 01:11:00;;;;;;;14.20;3.70;;;;;;;;;;4997653;28;20248;-64
2022/08/28 01:13:25;;;;;;;15.23;3.70;;;;;;;;;;4998369;28;20256;-64
2022/08/28 01:15:51;;;;;;;12.00;3.90;;;;;;;;;;5000337;28;20201;-63
2022/08/28 01:18:16;;;;;;;12.80;4.00;;;;;;;;;;4996264;28;20283;-63
2022/08/28 01:20:43;;;;;;;10.45;3.28;;;;;;;;;;4999019;28;20184;-64
2022/08/28 01:23:24;;;;;;;13.27;3.80;;;;;;;;;;4998611;28;20185;-65
2022/08/28 01:25:49;;;;;;;10.60;3.10;;;;;;;;;;4995494;28;20184;-65
2022/08/28 01:28:15;;;;;;;13.35;4.13;;;;;;;;;;4999392;28;20185;-64
2022/08/28 01:30:41;;;;;;;12.32;4.05;;;;;;;;;;4996391;28;20212;-64
2022/08/28 01:33:06;;;;;;;9.20;3.40;;;;;;;;;;4995928;28;20177;-64
2022/08/28 01:35:32;;;;;;;12.32;4.20;;;;;;;;;;4999755;28;20193;-64
2022/08/28 01:37:58;;;;;;;12.15;3.67;;;;;;;;;;4996476;28;20582;-64
2022/08/28 01:40:25;;;;;;;10.77;3.67;;;;;;;;;;4999184;28;20193;-64
2022/08/28 01:42:50;;;;;;;15.10;3.83;;;;;;;;;;4999534;28;20251;-64
2022/08/28 01:45:16;;;;;;;11.55;3.50;;;;;;;;;;4998014;28;20677;-64
2022/08/28 01:47:42;;;;;;;7.35;3.10;;;;;;;;;;4995888;28;20177;-64
2022/08/28 01:50:08;;;;;;;9.38;3.10;;;;;;;;;;4996538;28;20208;-64
2022/08/28 01:52:35;;;;;;;10.45;3.35;;;;;;;;;;4997028;28;20589;-64
2022/08/28 01:55:00;;;;;;;13.27;3.92;;;;;;;;;;4993639;28;20782;-64
2022/08/28 01:57:25;;;;;;;9.35;3.10;;;;;;;;;;4993277;28;20228;-64
2022/08/28 01:59:53;;;;;;;12.30;3.17;;;;;;;;;;4999082;28;20725;-64
2022/08/28 02:02:18;;;;;;;9.38;3.58;;;;;;;;;;4996339;28;20208;-64
2022/08/28 02:04:43;;;;;;;8.32;3.33;;;;;;;;;;4995255;28;20181;-64
2022/08/28 02:07:08;;;;;;;8.30;3.08;;;;;;;;;;5000871;28;20173;-64
2022/08/28 02:09:34;;;;;;;9.75;3.10;;;;;;;;;;4995148;28;20213;-64
2022/08/28 02:11:59;;;;;;;11.63;3.60;;;;;;;;;;4998788;28;20188;-64
2022/08/28 02:14:25;;;;;;;13.40;3.60;;;;;;;;;;4999411;28;20206;-64
2022/08/28 02:16:50;;;;;;;9.40;3.05;;;;;;;;;;4994022;28;20189;-64
2022/08/28 02:19:16;;;;;;;10.93;3.67;;;;;;;;;;4998197;28;20184;-64
2022/08/28 02:21:41;;;;;;;11.73;3.45;;;;;;;;;;4997348;28;20310;-63
2022/08/28 02:24:07;;;;;;;9.77;3.45;;;;;;;;;;4994542;28;20177;-64
2022/08/28 02:26:32;;;;;;;13.07;3.20;;;;;;;;;;4996868;28;20264;-63
2022/08/28 02:28:58;;;;;;;9.52;3.17;;;;;;;;;;4996585;28;20648;-63
2022/08/28 02:31:23;;;;;;;11.75;3.22;;;;;;;;;;4996315;28;20173;-64
2022/08/28 02:33:49;;;;;;;10.23;3.63;;;;;;;;;;4992623;28;20177;-64
2022/08/28 02:36:14;;;;;;;9.80;3.55;;;;;;;;;;4998719;28;20176;-64
2022/08/28 02:38:39;;;;;;;12.10;3.10;;;;;;;;;;4993106;28;20188;-64
2022/08/28 02:41:05;;;;;;;10.70;3.28;;;;;;;;;;4997693;28;20264;-64
2022/08/28 02:43:31;;;;;;;10.90;2.80;;;;;;;;;;4996255;28;20182;-64
2022/08/28 02:45:56;;;;;;;9.60;3.20;;;;;;;;;;4996862;28;20693;-64
2022/08/28 02:48:22;;;;;;;9.45;3.35;;;;;;;;;;4999171;28;20182;-64
2022/08/28 02:50:48;;;;;;;11.55;3.40;;;;;;;;;;4993826;28;20169;-64
2022/08/28 02:53:14;;;;;;;12.90;3.63;;;;;;;;;;4995740;28;20643;-64
2022/08/28 02:55:39;;;;;;;12.18;3.40;;;;;;;;;;5000112;28;20217;-64
2022/08/28 03:04:11;;;;;;;9.75;3.08;;;;;;;;;;4999366;28;20212;-64
2022/08/28 03:06:36;;;;;;;11.85;3.20;;;;;;;;;;4996756;28;20192;-64
2022/08/28 03:09:02;;;;;;;11.80;3.30;;;;;;;;;;4998107;28;20228;-62
2022/08/28 03:11:27;;;;;;;14.00;3.47;;;;;;;;;;4996938;28;20201;-64
2022/08/28 03:13:54;;;;;;;11.95;3.28;;;;;;;;;;4997340;28;20515;-64
2022/08/28 03:16:19;;;;;;;10.00;3.05;;;;;;;;;;4996588;28;20674;-63
2022/08/28 03:18:44;;;;;;;12.00;3.40;;;;;;;;;;4995593;28;20188;-64
2022/08/28 03:21:10;;;;;;;8.82;2.90;;;;;;;;;;4994082;28;20567;-64
2022/08/28 03:23:35;;;;;;;10.75;2.83;;;;;;;;;;4997099;28;20260;-63
2022/08/28 03:26:03;;;;;;;8.60;3.08;;;;;;;;;;4973268;28;20185;-63
2022/08/28 03:28:30;;;;;;;10.55;3.00;;;;;;;;;;4977933;28;20665;-63
2022/08/28 03:30:55;;;;;;;8.93;2.75;;;;;;;;;;4973623;28;20389;-63
2022/08/28 03:33:21;;;;;;;8.23;2.90;;;;;;;;;;4963697;28;20340;-63
2022/08/28 03:35:46;;;;;;;12.63;2.80;;;;;;;;;;4971322;28;20770;-63
2022/08/28 03:38:12;;;;;;;10.07;3.05;;;;;;;;;;4971964;28;20838;-63
2022/08/28 03:40:38;;;;;;;8.82;2.90;;;;;;;;;;4979124;28;20194;-63
2022/08/28 03:43:03;;;;;;;10.73;3.00;;;;;;;;;;4978917;28;20232;-63
2022/08/28 03:45:28;;;;;;;8.15;3.05;;;;;;;;;;4976408;28;20197;-64
2022/08/28 03:47:54;;;;;;;11.40;3.05;;;;;;;;;;4977453;28;20177;-63
2022/08/28 03:50:19;;;;;;;11.40;2.90;;;;;;;;;;4974527;28;20442;-64
2022/08/28 03:52:45;;;;;;;11.50;2.97;;;;;;;;;;4976556;28;20197;-63
2022/08/28 03:55:10;;;;;;;11.60;3.70;;;;;;;;;;4969268;28;20209;-64
2022/08/28 03:57:36;;;;;;;9.85;3.08;;;;;;;;;;4969630;28;20189;-64
2022/08/28 04:00:02;;;;;;;10.20;2.92;;;;;;;;;;4973294;28;20221;-64
2022/08/28 04:02:27;;;;;;;9.10;3.00;;;;;;;;;;4974510;28;20258;-64
2022/08/28 04:04:53;;;;;;;8.13;2.90;;;;;;;;;;4981095;28;20640;-64
2022/08/28 04:07:18;;;;;;;10.38;3.10;;;;;;;;;;4974417;28;20208;-64
2022/08/28 04:09:43;;;;;;;13.27;3.22;;;;;;;;;;4977699;28;20193;-64
2022/08/28 04:12:09;;;;;;;9.50;2.80;;;;;;;;;;4980124;28;20323;-64
2022/08/28 04:14:34;;;;;;;10.57;3.17;;;;;;;;;;4977600;28;20228;-64
2022/08/28 04:16:59;;;;;;;10.30;2.70;;;;;;;;;;4972490;28;20185;-64
2022/08/28 04:19:25;;;;;;;8.90;2.80;;;;;;;;;;4971579;28;20660;-64
2022/08/28 04:21:50;;;;;;;14.18;3.47;;;;;;;;;;4970550;28;20620;-64
2022/08/28 04:24:15;;;;;;;6.68;2.45;;;;;;;;;;4972457;28;20305;-64
2022/08/28 04:26:41;;;;;;;9.27;2.92;;;;;;;;;;4978005;28;21016;-63
2022/08/28 04:29:06;;;;;;;12.18;3.05;;;;;;;;;;4978426;28;20212;-63
2022/08/28 04:31:32;;;;;;;10.93;3.00;;;;;;;;;;4971226;28;20197;-64
2022/08/28 04:33:57;;;;;;;12.77;3.28;;;;;;;;;;4978975;28;20189;-64
2022/08/28 04:36:23;;;;;;;6.72;2.55;;;;;;;;;;4976585;28;20196;-64
2022/08/28 04:38:49;;;;;;;10.43;3.10;;;;;;;;;;4973846;28;20521;-64
2022/08/28 04:41:14;;;;;;;12.05;2.60;;;;;;;;;;4972459;28;20859;-64
2022/08/28 04:43:40;;;;;;;13.70;3.00;;;;;;;;;;4968475;28;20193;-64
2022/08/28 04:46:31;;;;;;;10.77;2.88;;;;;;;;;;4971217;28;20189;-64
2022/08/28 04:49:22;;;;;;;12.73;3.03;;;;;;;;;;4977122;28;20205;-64
2022/08/28 04:52:12;;;;;;;9.32;2.78;;;;;;;;;;4975828;28;20276;-64
2022/08/28 04:55:02;;;;;;;9.73;2.90;;;;;;;;;;4976681;28;20217;-64
2022/08/28 04:57:52;;;;;;;14.10;3.70;;;;;;;;;;4978884;28;20197;-64
2022/08/28 05:00:42;;;;;;;10.50;2.80;;;;;;;;;;4973731;28;20233;-64
2022/08/28 05:03:32;;;;;;;8.20;2.60;;;;;;;;;;4969104;28;20184;-64
2022/08/28 05:06:25;;;;;;;13.25;3.58;;;;;;;;;;4971380;28;20189;-64
2022/08/28 05:09:16;;;;;;;10.50;3.00;;;;;;;;;;4975410;28;20182;-63
2022/08/28 05:11:42;;;;;;;8.82;2.67;;;;;;;;;;4978288;28;20240;-64
2022/08/28 05:14:10;;;;;;;10.00;2.63;;;;;;;;;;4976391;28;20197;-64
2022/08/28 05:16:41;;;;;;;13.45;3.00;;;;;;;;;;4959124;28;20196;-64
2022/08/28 05:19:07;;;;;;;12.75;3.13;;;;;;;;;;4977725;28;20236;-64
2022/08/28 05:21:32;;;;;;;11.82;3.05;;;;;;;;;;4981339;28;20577;-64
2022/08/28 05:27:00;;;;;;;13.68;3.40;;;;;;;;;;5000059;28;20840;-61
2022/08/28 05:29:26;;;;;;;11.65;2.90;;;;;;;;;;4996595;28;20426;-62
2022/08/28 05:31:51;;;;;;;7.65;2.80;;;;;;;;;;5002782;28;20632;-62
2022/08/28 05:34:17;;;;;;;9.38;2.58;;;;;;;;;;4997036;28;20715;-61
2022/08/28 05:36:42;;;;;;;11.07;3.07;;;;;;;;;;4992679;28;20432;-62
2022/08/28 05:39:08;;;;;;;11.45;3.17;;;;;;;;;;4986595;28;20189;-62
2022/08/28 05:41:33;;;;;;;8.25;2.72;;;;;;;;;;4988791;28;20276;-62
2022/08/28 05:44:00;;;;;;;12.48;2.75;;;;;;;;;;4987905;28;20689;-62
2022/08/28 05:46:27;;;;;;;12.43;2.92;;;;;;;;;;4987412;28;20227;-62
2022/08/28 05:48:52;;;;;;;8.35;2.50;;;;;;;;;;4988690;28;20224;-62
2022/08/28 05:51:18;;;;;;;9.43;2.58;;;;;;;;;;4988540;28;20199;-62
2022/08/28 05:53:44;;;;;;;9.20;2.30;;;;;;;;;;4989123;28;20258;-62
2022/08/28 05:56:11;;;;;;;8.25;2.40;;;;;;;;;;4984040;28;20676;-62
2022/08/28 05:58:38;;;;;;;7.78;2.40;;;;;;;;;;4985924;28;20211;-62
2022/08/28 06:39:46;;;;;;;9.68;2.33;;;;;;;;;;4959397;28;20284;-63
2022/08/28 06:42:12;;;;;;;8.50;2.67;;;;;;;;;;4999442;28;20196;-63
2022/08/28 06:44:37;;;;;;;12.00;2.47;;;;;;;;;;4999107;28;20185;-63
2022/08/28 06:47:02;;;;;;;9.45;2.47;;;;;;;;;;4999640;28;20207;-63
2022/08/28 06:49:27;;;;;;;9.55;2.20;;;;;;;;;;5001016;28;20296;-63
2022/08/28 06:51:53;;;;;;;13.25;2.60;;;;;;;;;;5001357;28;20250;-63
2022/08/28 06:54:44;;;;;;;9.43;2.20;;;;;;;;;;5000445;28;20303;-62
2022/08/28 06:57:09;;;;;;;10.70;2.40;;;;;;;;;;5000064;28;20260;-63
2022/08/28 06:59:35;;;;;;;10.35;2.45;;;;;;;;;;4997524;28;20616;-62
2022/08/28 07:02:01;;;;;;;8.18;2.15;;;;;;;;;;4998309;28;21176;-63
2022/08/28 07:14:12;;;;;;;11.15;2.35;;;;;;;;;;5002082;28;20824;-62
2022/08/28 07:16:38;;;;;;;11.23;2.38;;;;;;;;;;5004195;28;20302;-62
2022/08/28 07:19:04;;;;;;;8.20;1.70;;;;;;;;;;5000869;28;20184;-63
2022/08/28 07:21:30;;;;;;;7.20;2.00;;;;;;;;;;4999394;28;20193;-63
2022/08/28 07:23:55;;;;;;;8.15;1.83;;;;;;;;;;5002458;28;20523;-62
2022/08/28 07:26:22;;;;;;;7.28;1.77;;;;;;;;;;5001409;28;20169;-63
2022/08/28 07:28:47;;;;;;;6.60;1.90;;;;;;;;;;5000850;28;20209;-63
2022/08/28 07:31:14;;;;;;;10.30;1.95;;;;;;;;;;4994044;28;20268;-62
2022/08/28 07:33:39;;;;;;;7.75;1.90;;;;;;;;;;4991374;28;20656;-63
2022/08/28 07:36:05;;;;;;;7.18;1.70;;;;;;;;;;4997051;28;20219;-63
2022/08/28 07:38:31;;;;;;;7.97;1.73;;;;;;;;;;4995012;28;20267;-63
2022/08/28 07:40:56;;;;;;;7.78;1.92;;;;;;;;;;4990871;28;20272;-63
2022/08/28 07:46:06;;;;;;;7.05;1.70;;;;;;;;;;4989742;28;20196;-63
2022/08/28 07:48:32;;;;;;;7.00;1.95;;;;;;;;;;4998133;28;20184;-63
2022/08/28 07:50:58;;;;;;;9.43;2.53;;;;;;;;;;4967520;28;20287;-63
2022/08/28 07:53:23;;;;;;;10.25;2.00;;;;;;;;;;4982613;28;55198;-63
2022/08/28 07:55:50;;;;;;;8.18;1.77;;;;;;;;;;4972824;28;20229;-63
2022/08/28 08:01:28;;;;;;;7.78;1.77;;;;;;;;;;5026554;28;20671;-61
2022/08/28 08:03:53;;;;;;;10.18;2.10;;;;;;;;;;5026618;28;20277;-62
2022/08/28 08:06:20;;;;;;;9.20;1.92;;;;;;;;;;5025550;28;20691;-59
2022/08/28 08:08:46;;;;;;;7.55;1.90;;;;;;;;;;5024959;28;20564;-60
2022/08/28 08:11:13;;;;;;;7.97;2.00;;;;;;;;;;5038319;28;20673;-60
2022/08/28 08:13:39;;;;;;;6.13;1.77;;;;;;;;;;5034768;28;20675;-59
2022/08/28 08:16:05;;;;;;;7.45;1.73;;;;;;;;;;5026186;28;20241;-59
2022/08/28 08:18:32;;;;;;;6.82;1.67;;;;;;;;;;5045297;28;20226;-59
2022/08/28 08:20:57;;;;;;;6.57;1.65;;;;;;;;;;5029341;28;20224;-59
2022/08/28 08:23:22;;;;;;;7.05;1.63;;;;;;;;;;5025870;28;20208;-72
2022/08/28 08:25:53;;;;;;;7.72;1.55;;;;;;;;;;5035049;28;20409;-70
2022/08/28 08:28:19;;;;;;;6.88;1.67;;;;;;;;;;5045361;28;20592;-60
2022/08/28 08:30:45;;;;;;;6.32;1.80;;;;;;;;;;5046462;28;20229;-61
2022/08/28 08:33:11;;;;;;;8.00;1.63;;;;;;;;;;5046626;28;20252;-60
2022/08/28 08:35:36;;;;;;;10.05;1.90;;;;;;;;;;5047110;28;20207;-60
2022/08/28 08:38:02;;;;;;;8.15;2.00;;;;;;;;;;5032311;28;20262;-61
2022/08/28 08:40:27;;;;;;;6.68;1.88;;;;;;;;;;5027008;28;20582;-61
2022/08/28 08:42:54;;;;;;;9.82;1.80;;;;;;;;;;5034037;28;20218;-60
2022/08/28 08:45:22;;;;;;;6.13;1.60;;;;;;;;;;5046534;28;20211;-60
2022/08/28 08:47:50;;;;;;;6.97;1.50;;;;;;;;;;5045502;28;20286;-61
2022/08/28 08:50:17;;;;;;;8.43;1.67;;;;;;;;;;5045632;28;20208;-60
2022/08/28 08:52:42;;;;;;;8.52;1.60;;;;;;;;;;5045418;28;20204;-62
2022/08/28 08:55:20;;;;;;;7.40;1.60;;;;;;;;;;5027962;28;20269;-62
2022/08/28 08:57:45;;;;;;;4.68;1.50;;;;;;;;;;5026151;28;20208;-61
2022/08/28 09:00:11;;;;;;;10.98;1.75;;;;;;;;;;5024580;28;20254;-61
2022/08/28 09:02:37;;;;;;;6.63;1.58;;;;;;;;;;5025534;28;20215;-61
2022/08/28 09:05:04;;;;;;;9.02;1.80;;;;;;;;;;5024275;28;20207;-61
2022/08/28 09:07:36;;;;;;;4.18;1.55;;;;;;;;;;5025058;28;20216;-61
2022/08/28 09:10:02;;;;;;;7.72;1.70;;;;;;;;;;5024683;28;20257;-61
2022/08/28 09:12:28;;;;;;;7.65;1.40;;;;;;;;;;5014834;28;20211;-62
2022/08/28 09:14:56;;;;;;;8.93;1.50;;;;;;;;;;5012960;28;20211;-61
2022/08/28 09:17:23;;;;;;;7.88;1.65;;;;;;;;;;5012717;28;20730;-61
2022/08/28 09:19:48;;;;;;;5.90;1.50;;;;;;;;;;5012257;28;20228;-62
2022/08/28 09:22:14;;;;;;;6.55;1.50;;;;;;;;;;5012448;28;20204;-62
2022/08/28 09:24:40;;;;;;;7.00;1.75;;;;;;;;;;5013162;28;20212;-61
2022/08/28 09:27:07;;;;;;;7.45;1.77;;;;;;;;;;5012163;28;20219;-61
2022/08/28 09:29:33;;;;;;;6.03;1.60;;;;;;;;;;5011706;28;20734;-61
2022/08/28 09:32:14;;;;;;;5.38;1.58;;;;;;;;;;5012885;28;20299;-61
2022/08/28 09:34:39;;;;;;;6.68;1.55;;;;;;;;;;5012737;28;20722;-62
2022/08/28 09:37:05;;;;;;;5.90;1.60;;;;;;;;;;5010744;28;20300;-62
2022/08/28 09:39:31;;;;;;;6.45;1.75;;;;;;;;;;5010602;28;20212;-61
2022/08/28 09:44:48;;;;;;;7.00;1.58;;;;;;;;;;5012457;28;20673;-61
2022/08/28 09:47:33;;;;;;;4.03;1.40;;;;;;;;;;5014714;28;20306;-61
2022/08/28 09:50:13;;;;;;;6.22;1.45;;;;;;;;;;5032267;28;20223;-61
2022/08/28 09:52:38;;;;;;;5.65;1.63;;;;;;;;;;5031749;28;20204;-61
2022/08/28 09:55:03;;;;;;;5.72;1.15;;;;;;;;;;5013575;28;20702;-61
2022/08/28 09:57:29;;;;;;;7.32;1.48;;;;;;;;;;5011216;28;20240;-61
2022/08/28 09:59:55;;;;;;;5.10;1.48;;;;;;;;;;5019541;28;20683;-60
2022/08/28 10:02:23;;;;;;;3.40;1.40;;;;;;;;;;5030836;28;20285;-63
2022/08/28 10:04:51;;;;;;;6.07;1.25;;;;;;;;;;5031931;28;20208;-60
2022/08/28 10:07:32;;;;;;;6.00;1.58;;;;;;;;;;5030369;28;20299;-63
2022/08/28 10:10:05;;;;;;;5.43;1.38;;;;;;;;;;5012185;28;20214;-62
2022/08/28 10:12:41;;;;;;;5.32;1.30;;;;;;;;;;5014000;28;20717;-63
2022/08/28 10:15:19;;;;;;;7.28;1.40;;;;;;;;;;5030419;28;20206;-62
2022/08/28 10:17:55;;;;;;;5.60;1.33;;;;;;;;;;5010279;28;20735;-62
2022/08/28 10:20:32;;;;;;;6.88;1.27;;;;;;;;;;5003314;28;20236;-62
2022/08/28 10:23:00;;;;;;;5.57;1.40;;;;;;;;;;4996920;28;20212;-64
2022/08/28 10:25:33;;;;;;;5.30;1.50;;;;;;;;;;5018497;28;20226;-62
2022/08/28 10:27:58;;;;;;;4.75;1.55;;;;;;;;;;4999359;28;20372;-61
2022/08/28 10:30:24;;;;;;;6.60;1.30;;;;;;;;;;5004903;28;20213;-61
2022/08/28 10:32:53;;;;;;;5.82;1.48;;;;;;;;;;4988651;28;20212;-61
2022/08/28 10:35:20;;;;;;;7.82;1.40;;;;;;;;;;5005767;28;20739;-61
2022/08/28 10:37:49;;;;;;;5.45;1.20;;;;;;;;;;5013538;28;20208;-61
2022/08/28 10:40:17;;;;;;;6.97;1.30;;;;;;;;;;5024478;28;20314;-62
2022/08/28 10:42:46;;;;;;;4.43;1.35;;;;;;;;;;5018722;28;20595;-62
2022/08/28 10:45:20;;;;;;;6.03;1.52;;;;;;;;;;4999163;28;20400;-61
2022/08/28 10:47:47;;;;;;;5.70;1.20;;;;;;;;;;5018254;28;20276;-62
2022/08/28 10:50:15;;;;;;;8.05;1.45;;;;;;;;;;5003871;28;20220;-62
2022/08/28 10:52:42;;;;;;;3.85;1.23;;;;;;;;;;5024439;28;20207;-62
2022/08/28 10:55:12;;;;;;;4.70;1.20;;;;;;;;;;5005834;28;20238;-62
2022/08/28 10:57:40;;;;;;;4.82;1.42;;;;;;;;;;4987362;28;20379;-61
2022/08/28 11:00:09;;;;;;;5.57;1.30;;;;;;;;;;5023674;28;20239;-61
2022/08/28 11:02:34;;;;;;;3.85;1.50;;;;;;;;;;5018804;28;20231;-61
2022/08/28 11:05:01;;;;;;;7.75;1.45;;;;;;;;;;5000774;28;20734;-62
2022/08/28 11:07:29;;;;;;;4.90;1.35;;;;;;;;;;4979923;28;20263;-62
2022/08/28 11:09:54;;;;;;;5.53;1.35;;;;;;;;;;4981001;28;20205;-61
2022/08/28 11:12:19;;;;;;;3.65;1.10;;;;;;;;;;5001236;28;20721;-61
2022/08/28 11:14:46;;;;;;;8.05;1.27;;;;;;;;;;5005871;28;20296;-62
2022/08/28 11:17:20;;;;;;;4.43;1.40;;;;;;;;;;4986574;28;20299;-61
2022/08/28 11:20:06;;;;;;;4.45;1.27;;;;;;;;;;5005103;28;20239;-61
2022/08/28 11:22:40;;;;;;;5.28;1.20;;;;;;;;;;5005005;28;20215;-61
2022/08/28 11:25:05;;;;;;;6.47;1.55;;;;;;;;;;5023180;28;20297;-61
2022/08/28 11:27:32;;;;;;;5.22;1.20;;;;;;;;;;5014495;28;20216;-60
2022/08/28 11:30:00;;;;;;;6.45;1.40;;;;;;;;;;4982866;28;20218;-61
2022/08/28 11:32:34;;;;;;;6.30;1.30;;;;;;;;;;4998880;28;20211;-62
2022/08/28 11:35:00;;;;;;;5.15;1.55;;;;;;;;;;5003511;28;20263;-63
2022/08/28 11:37:35;;;;;;;8.38;1.42;;;;;;;;;;4996839;28;20213;-62
2022/08/28 11:40:12;;;;;;;5.35;1.30;;;;;;;;;;4982915;28;20261;-62
2022/08/28 11:42:38;;;;;;;6.82;1.40;;;;;;;;;;4984948;28;20224;-62
2022/08/28 11:45:04;;;;;;;3.67;1.40;;;;;;;;;;4983841;28;20205;-62
2022/08/28 11:47:33;;;;;;;6.80;1.60;;;;;;;;;;4983488;28;20790;-62
2022/08/28 11:50:02;;;;;;;5.03;1.52;;;;;;;;;;4981488;28;20209;-62
2022/08/28 11:52:43;;;;;;;7.72;1.30;;;;;;;;;;4977721;28;20212;-64
2022/08/28 11:55:24;;;;;;;3.88;1.10;;;;;;;;;;4977741;28;20209;-63
2022/08/28 11:57:49;;;;;;;5.22;1.40;;;;;;;;;;4981470;28;20213;-62
2022/08/28 12:00:20;;;;;;;5.05;1.60;;;;;;;;;;4983999;28;20272;-62
2022/08/28 12:02:47;;;;;;;5.85;1.30;;;;;;;;;;4984129;28;20257;-63
2022/08/28 12:05:13;;;;;;;4.75;1.35;;;;;;;;;;4983028;28;20209;-62
2022/08/28 12:07:39;;;;;;;4.40;1.40;;;;;;;;;;4985058;28;20217;-63
2022/08/28 12:10:21;;;;;;;5.47;1.45;;;;;;;;;;4983256;28;20741;-63
2022/08/28 12:12:46;;;;;;;4.50;1.73;;;;;;;;;;4981170;28;20460;-63
2022/08/28 12:15:27;;;;;;;4.75;1.23;;;;;;;;;;4976802;28;20208;-62
2022/08/28 12:17:57;;;;;;;3.40;1.25;;;;;;;;;;4978713;28;20212;-62
2022/08/28 12:20:24;;;;;;;6.32;1.60;;;;;;;;;;4981089;28;20306;-62
2022/08/28 12:22:54;;;;;;;4.95;1.15;;;;;;;;;;4983922;28;20247;-62
2022/08/28 12:25:25;;;;;;;4.28;1.30;;;;;;;;;;4985751;28;20221;-62
2022/08/28 12:27:51;;;;;;;6.30;1.33;;;;;;;;;;4990573;28;20201;-62
2022/08/28 12:30:25;;;;;;;5.60;1.50;;;;;;;;;;5002093;28;20217;-63
2022/08/28 12:32:55;;;;;;;6.20;1.45;;;;;;;;;;5003818;28;20222;-62
2022/08/28 12:35:21;;;;;;;3.95;1.20;;;;;;;;;;4997629;28;20224;-63
2022/08/28 12:37:56;;;;;;;10.57;1.55;;;;;;;;;;4975828;28;20555;-62
2022/08/28 12:40:23;;;;;;;5.85;1.42;;;;;;;;;;4977757;28;20264;-62
2022/08/28 12:42:50;;;;;;;2.83;1.20;;;;;;;;;;4980799;28;20268;-63
2022/08/28 12:45:19;;;;;;;4.43;1.17;;;;;;;;;;4983054;28;20213;-62
2022/08/28 12:47:44;;;;;;;3.92;1.05;;;;;;;;;;4987442;28;20220;-63
2022/08/28 12:50:18;;;;;;;5.13;1.50;;;;;;;;;;4987347;28;20222;-63
2022/08/28 12:52:48;;;;;;;6.47;1.33;;;;;;;;;;4989013;28;20211;-63
2022/08/28 12:55:13;;;;;;;5.65;1.30;;;;;;;;;;4987511;28;20743;-63
2022/08/28 12:57:39;;;;;;;5.80;1.50;;;;;;;;;;4984829;28;20344;-63
2022/08/28 13:00:06;;;;;;;4.05;1.30;;;;;;;;;;4978393;28;20913;-65
2022/08/28 13:02:33;;;;;;;5.95;1.60;;;;;;;;;;4981445;28;20251;-63
2022/08/28 13:05:00;;;;;;;5.28;1.17;;;;;;;;;;4982853;28;20734;-65
2022/08/28 13:07:28;;;;;;;4.18;1.30;;;;;;;;;;4986792;28;20270;-64
2022/08/28 13:09:54;;;;;;;2.55;1.08;;;;;;;;;;4986675;28;20217;-65
2022/08/28 13:12:37;;;;;;;4.82;1.40;;;;;;;;;;4985915;28;20640;-63
2022/08/28 13:15:03;;;;;;;4.05;1.40;;;;;;;;;;5005961;28;20688;-63
2022/08/28 13:17:43;;;;;;;8.32;1.90;;;;;;;;;;4995404;28;20305;-64
2022/08/28 13:20:09;;;;;;;3.17;1.27;;;;;;;;;;5003960;28;20232;-63
2022/08/28 13:22:37;;;;;;;5.43;1.30;;;;;;;;;;4998701;28;20223;-64
2022/08/28 13:25:04;;;;;;;4.22;1.38;;;;;;;;;;4998685;28;20307;-63
2022/08/28 13:27:29;;;;;;;2.63;1.13;;;;;;;;;;4997117;28;20204;-63
2022/08/28 13:29:54;;;;;;;3.67;1.30;;;;;;;;;;5006870;28;20219;-64
2022/08/28 13:32:20;;;;;;;3.40;1.48;;;;;;;;;;5005730;28;20282;-62
2022/08/28 13:35:02;;;;;;;5.03;1.45;;;;;;;;;;5005030;28;20220;-64
2022/08/28 13:37:39;;;;;;;3.83;1.30;;;;;;;;;;4993721;28;20212;-62
2022/08/28 13:40:04;;;;;;;2.97;1.30;;;;;;;;;;4986696;28;20679;-63
2022/08/28 13:42:30;;;;;;;7.75;1.40;;;;;;;;;;4987311;28;21643;-63
2022/08/28 13:44:55;;;;;;;4.20;1.30;;;;;;;;;;4958526;28;20830;-62
2022/08/28 13:47:20;;;;;;;3.88;1.27;;;;;;;;;;5008611;28;20231;-79
2022/08/28 13:49:46;;;;;;;3.95;1.35;;;;;;;;;;5000382;28;20228;-86
2022/08/28 13:52:11;;;;;;;4.18;1.33;;;;;;;;;;5005962;28;20212;-79
2022/08/28 13:54:37;;;;;;;4.70;1.55;;;;;;;;;;5006235;28;20211;-75
2022/08/28 13:57:02;;;;;;;4.05;1.42;;;;;;;;;;5006277;28;20213;-82
2022/08/28 13:59:28;;;;;;;7.93;1.67;;;;;;;;;;5005783;28;20208;-79
2022/08/28 14:04:38;;;;;;;7.10;1.70;;;;;;;;;;4991313;28;20211;-86
2022/08/28 14:07:03;;;;;;;5.68;1.50;;;;;;;;;;4998531;28;20220;-73
2022/08/28 14:09:28;;;;;;;2.28;1.10;;;;;;;;;;4986616;28;20212;-76
2022/08/28 14:11:55;;;;;;;4.88;1.42;;;;;;;;;;5003393;28;20526;-87
2022/08/28 14:14:21;;;;;;;8.57;1.60;;;;;;;;;;5017420;28;20705;-87
2022/08/28 14:16:49;;;;;;;5.07;1.42;;;;;;;;;;5006455;28;20280;-79
2022/08/28 14:19:14;;;;;;;6.13;1.60;;;;;;;;;;5011405;28;20322;-77
2022/08/28 14:21:39;;;;;;;4.60;1.33;;;;;;;;;;5004746;28;20239;-81
2022/08/28 14:24:05;;;;;;;4.97;1.70;;;;;;;;;;4989237;28;20286;-76
2022/08/28 14:26:31;;;;;;;5.38;1.92;;;;;;;;;;4988799;28;20683;-86
2022/08/28 14:28:57;;;;;;;5.57;1.58;;;;;;;;;;4988640;28;20270;-85
2022/08/28 14:31:24;;;;;;;4.88;1.55;;;;;;;;;;4997709;28;20239;-86
2022/08/28 14:33:49;;;;;;;5.47;1.70;;;;;;;;;;4997966;28;20492;-82
2022/08/28 14:36:15;;;;;;;4.60;1.58;;;;;;;;;;4997453;28;20208;-75
2022/08/28 14:38:41;;;;;;;5.18;1.42;;;;;;;;;;5005087;28;20234;-75
2022/08/28 14:41:06;;;;;;;5.55;1.85;;;;;;;;;;5007161;28;20216;-74
2022/08/28 14:43:32;;;;;;;5.30;1.52;;;;;;;;;;4991304;28;20215;-73
2022/08/28 14:45:57;;;;;;;4.72;1.70;;;;;;;;;;5004537;28;20212;-76
2022/08/28 14:48:23;;;;;;;6.63;1.25;;;;;;;;;;5004368;28;20204;-62
2022/08/28 14:50:48;;;;;;;7.03;1.70;;;;;;;;;;5004732;28;20221;-61
2022/08/28 14:53:14;;;;;;;4.22;1.25;;;;;;;;;;5001295;28;20743;-61
2022/08/28 14:55:42;;;;;;;7.50;1.73;;;;;;;;;;4977695;28;20247;-62
2022/08/28 14:58:08;;;;;;;5.32;1.50;;;;;;;;;;5001947;28;20296;-62
2022/08/28 15:00:36;;;;;;;2.95;1.60;;;;;;;;;;5002355;28;20598;-62
2022/08/28 15:03:02;;;;;;;5.63;1.35;;;;;;;;;;5004705;28;20227;-61
2022/08/28 15:05:27;;;;;;;5.78;1.60;;;;;;;;;;5005574;28;20770;-62
2022/08/28 15:07:52;;;;;;;6.68;1.30;;;;;;;;;;5005572;28;20714;-63
2022/08/28 15:10:18;;;;;;;3.95;1.48;;;;;;;;;;5004226;28;20664;-62
2022/08/28 15:12:43;;;;;;;3.58;1.23;;;;;;;;;;5005161;28;20588;-59
2022/08/28 15:15:08;;;;;;;2.65;1.20;;;;;;;;;;5004088;28;20212;-64
2022/08/28 15:17:34;;;;;;;4.35;1.60;;;;;;;;;;4996736;28;20220;-65
2022/08/28 15:19:59;;;;;;;5.35;1.40;;;;;;;;;;4997322;28;20732;-64
2022/08/28 15:22:25;;;;;;;3.55;1.25;;;;;;;;;;5018331;28;20208;-63
2022/08/28 15:24:50;;;;;;;5.43;1.70;;;;;;;;;;5023543;28;20216;-63
2022/08/28 15:27:16;;;;;;;5.97;1.52;;;;;;;;;;5008538;28;20317;-64
2022/08/28 15:29:41;;;;;;;4.50;1.50;;;;;;;;;;5024307;28;20216;-64
2022/08/28 15:32:06;;;;;;;4.50;1.60;;;;;;;;;;5023209;28;20211;-63
2022/08/28 15:34:32;;;;;;;4.80;1.90;;;;;;;;;;5023675;28;20222;-64
2022/08/28 15:36:57;;;;;;;4.53;1.50;;;;;;;;;;5017425;28;20213;-64
2022/08/28 15:42:08;;;;;;;7.82;1.73;;;;;;;;;;5015950;28;20716;-64
2022/08/28 15:44:34;;;;;;;6.18;1.42;;;;;;;;;;5017951;28;20497;-63
2022/08/28 15:47:00;;;;;;;3.72;1.30;;;;;;;;;;5022863;28;20212;-63
2022/08/28 15:49:26;;;;;;;3.22;1.23;;;;;;;;;;5005390;28;20215;-64
2022/08/28 15:51:51;;;;;;;3.83;1.30;;;;;;;;;;4997484;28;20387;-63
2022/08/28 15:54:17;;;;;;;3.58;1.50;;;;;;;;;;5004341;28;20247;-64
2022/08/28 15:56:42;;;;;;;4.90;1.58;;;;;;;;;;5004630;28;20215;-64
2022/08/28 15:59:08;;;;;;;9.30;1.73;;;;;;;;;;5003404;28;20338;-63
2022/08/28 16:01:33;;;;;;;3.92;1.30;;;;;;;;;;4982156;28;20323;-62
2022/08/28 16:03:59;;;;;;;4.63;1.30;;;;;;;;;;4997154;28;20601;-64
2022/08/28 16:06:25;;;;;;;4.22;1.55;;;;;;;;;;4996965;28;20219;-63
2022/08/28 16:08:50;;;;;;;6.97;1.67;;;;;;;;;;5001803;28;20216;-62